Terminal Aerodrome Forecast
Issued by NWS

Home | Current Version | Previous Version | Text Only | Print | Product List | Glossary On
Versions: 1 2 3 4 5 6 7 8 9 10 11 12 13 14 15 16 17 18 19 20 21 22 23 24 25 26 27 28 29 30 31 32 33 34 35 36 37
000
FTAK31 PANC 280542
TAFADL
TAF
PADL 280542Z 2806/2906 30012G20KT P6SM VCSH BKN035
      TEMPO 2806/2808 BKN020
     FM281200 30011KT P6SM VCSH SCT015 BKN035
     FM282100 25008KT P6SM -SHRA BKN050
      AMD LTD TO CLD VIS AND WIND 2807/2816=

USA.gov is the U.S. government's official web portal to all federal, state and local government web resources and services.